sim
Sign-in with your pilot id or email,
or register
Callsign
Passwort

Schedule Details

Flight Number: DLH2275 (2)
Departure: Nice Cote d'Azur Airport (LFMN) at 19:10
Arrival: Munich Airport (EDDM) at 20:35
Route: Lufthansa Passenger Schedule. Enter filed route here before submitting Pirep.

Weather Information
Getting current METAR information for LFMN 210630Z 33009KT 9999 FEW020 FEW033CB BKN044 BKN120 20/16 Q1015 NOSIG
Getting current METAR information for EDDM 210620Z 00000KT CAVOK 09/09 Q1017 BECMG 09005KT

Schedule Frequency

Route Map